createdAt,value
2018-05-01T00:00:30.980Z,48.38
2018-05-01T00:02:58.953Z,48.44
2018-05-01T00:05:26.972Z,49.51
2018-05-01T00:07:54.948Z,49.16
2018-05-01T00:10:22.978Z,49.27
2018-05-01T00:12:51.000Z,49.04
2018-05-01T00:15:18.981Z,49.20
2018-05-01T00:17:47.071Z,50.34
2018-05-01T00:20:15.096Z,50.15
2018-05-01T00:22:43.103Z,49.69
2018-05-01T00:25:11.094Z,49.35
2018-05-01T00:27:39.097Z,52.96
2018-05-01T00:30:07.069Z,54.02
2018-05-01T00:32:35.202Z,57.23
2018-05-01T00:35:03.241Z,56.64
2018-05-01T00:37:31.285Z,58.70
2018-05-01T00:39:59.315Z,59.55
2018-05-01T00:42:27.314Z,59.06
2018-05-01T00:44:55.345Z,56.86
2018-05-01T00:47:23.389Z,58.22
2018-05-01T00:49:51.382Z,57.78
2018-05-01T00:52:31.325Z,57.39
2018-05-01T00:54:59.351Z,55.95
2018-05-01T00:57:28.522Z,56.95
2018-05-01T00:59:56.508Z,57.87
2018-05-01T01:02:24.549Z,57.44
2018-05-01T01:04:52.566Z,57.83
2018-05-01T01:07:20.591Z,60.37
2018-05-01T01:09:48.657Z,59.27
2018-05-01T01:12:16.660Z,56.99
2018-05-01T01:14:44.736Z,59.87
2018-05-01T01:17:12.811Z,60.51
2018-05-01T01:19:40.896Z,59.30
2018-05-01T01:22:08.940Z,60.03
2018-05-01T01:24:37.015Z,58.25
2018-05-01T01:27:05.070Z,57.62
2018-05-01T01:29:33.077Z,56.78
2018-05-01T01:32:17.975Z,55.98
2018-05-01T01:34:45.903Z,55.01
2018-05-01T01:37:14.600Z,54.96
2018-05-01T01:39:42.209Z,54.82
2018-05-01T01:42:09.707Z,54.37
2018-05-01T01:44:37.188Z,54.38
2018-05-01T01:47:04.664Z,54.03
2018-05-01T01:49:32.150Z,54.03
2018-05-01T01:51:59.647Z,53.58
2018-05-01T01:54:27.194Z,53.51
2018-05-01T01:56:54.692Z,53.48
2018-05-01T01:59:22.184Z,53.37
2018-05-01T02:01:49.679Z,53.22
2018-05-01T02:04:17.085Z,52.93
2018-05-01T02:06:44.670Z,52.94
2018-05-01T02:09:12.176Z,53.26
2018-05-01T02:11:39.605Z,52.75
2018-05-01T02:14:07.062Z,53.01
2018-05-01T02:16:34.559Z,53.29
2018-05-01T02:19:02.115Z,53.43
2018-05-01T02:21:29.623Z,53.42
2018-05-01T02:23:57.060Z,53.63
2018-05-01T02:26:24.546Z,53.87
2018-05-01T02:28:51.984Z,54.61
2018-05-01T02:31:19.526Z,53.98
2018-05-01T02:33:46.952Z,53.54
2018-05-01T02:36:14.491Z,53.66
2018-05-01T02:38:42.222Z,53.42
2018-05-01T02:41:09.776Z,53.84
2018-05-01T02:43:37.156Z,53.49
2018-05-01T02:46:04.584Z,53.25
2018-05-01T02:48:32.131Z,53.27
2018-05-01T02:50:59.632Z,53.61
2018-05-01T02:53:27.125Z,53.54
2018-05-01T02:55:54.623Z,53.85
2018-05-01T02:58:22.173Z,53.89
2018-05-01T03:00:49.659Z,53.76
2018-05-01T03:03:17.222Z,53.51
2018-05-01T03:05:44.645Z,53.80
2018-05-01T03:08:12.137Z,54.00
2018-05-01T03:10:39.591Z,58.96
2018-05-01T03:13:07.085Z,62.84
2018-05-01T03:15:34.542Z,63.36
2018-05-01T03:18:02.086Z,63.40
2018-05-01T03:20:29.576Z,64.32
2018-05-01T03:22:57.038Z,60.89
2018-05-01T03:25:24.644Z,60.14
2018-05-01T03:27:51.993Z,59.66
2018-05-01T03:30:19.469Z,59.91
2018-05-01T03:32:46.953Z,59.31
2018-05-01T03:35:14.414Z,59.11
2018-05-01T03:37:41.879Z,59.52
2018-05-01T03:40:09.760Z,58.52
2018-05-01T03:42:37.110Z,57.90
2018-05-01T03:45:04.532Z,58.04
2018-05-01T03:47:32.050Z,57.37
2018-05-01T03:49:59.537Z,57.28
2018-05-01T03:52:27.125Z,56.87
2018-05-01T03:54:54.517Z,57.14
2018-05-01T03:57:21.999Z,57.04
2018-05-01T03:59:49.485Z,57.24
2018-05-01T04:02:17.042Z,56.46
2018-05-01T04:04:45.691Z,56.38
2018-05-01T04:07:13.204Z,55.70
2018-05-01T04:09:40.660Z,56.27
2018-05-01T04:12:08.175Z,56.39
2018-05-01T04:14:35.661Z,56.14
2018-05-01T04:17:03.134Z,56.16
2018-05-01T04:19:30.589Z,57.08
2018-05-01T04:21:58.053Z,56.16
2018-05-01T04:24:25.438Z,56.13
2018-05-01T04:26:52.959Z,55.02
2018-05-01T04:29:20.411Z,55.00
2018-05-01T04:31:47.910Z,55.09
2018-05-01T04:34:15.363Z,57.58
2018-05-01T04:36:42.863Z,56.39
2018-05-01T04:39:10.432Z,55.04
2018-05-01T04:41:38.382Z,54.11
2018-05-01T04:44:05.916Z,53.44
2018-05-01T04:46:33.406Z,54.81
2018-05-01T04:49:00.842Z,55.46
2018-05-01T04:51:28.312Z,57.31
2018-05-01T04:53:55.788Z,58.09
2018-05-01T04:56:23.246Z,58.90
2018-05-01T04:58:50.794Z,58.68
2018-05-01T05:01:18.290Z,58.14
2018-05-01T05:03:45.875Z,59.08
2018-05-01T05:06:13.439Z,58.87
2018-05-01T05:08:40.949Z,59.02
2018-05-01T05:11:08.405Z,58.75
2018-05-01T05:16:34.049Z,58.24
2018-05-01T05:19:01.527Z,57.21
2018-05-01T05:21:29.014Z,59.40
2018-05-01T05:23:57.468Z,55.18
2018-05-01T05:26:25.023Z,52.61
2018-05-01T05:28:52.859Z,53.08
2018-05-01T05:31:20.317Z,50.83
2018-05-01T05:33:47.872Z,53.03
2018-05-01T05:36:15.344Z,55.85
2018-05-01T05:38:43.478Z,56.55
2018-05-01T05:41:10.902Z,54.16
2018-05-01T05:43:38.813Z,50.44
2018-05-01T05:46:06.399Z,48.72
2018-05-01T05:48:33.922Z,49.65
2018-05-01T05:51:01.419Z,50.19
2018-05-01T05:53:28.952Z,49.18
2018-05-01T05:55:56.505Z,50.50
2018-05-01T05:58:24.120Z,50.94
2018-05-01T06:00:51.677Z,49.30
2018-05-01T06:03:19.175Z,51.51
2018-05-01T06:05:46.670Z,47.09
2018-05-01T06:08:14.201Z,49.17
2018-05-01T06:10:41.692Z,48.83
2018-05-01T06:13:09.214Z,46.06
2018-05-01T06:15:36.769Z,47.59
2018-05-01T06:18:04.363Z,46.56
2018-05-01T06:20:31.865Z,46.46
2018-05-01T06:22:59.304Z,47.30
2018-05-01T06:25:26.913Z,46.40
2018-05-01T06:27:54.414Z,46.22
2018-05-01T06:30:21.920Z,45.65
2018-05-01T06:32:49.398Z,45.71
2018-05-01T06:35:16.863Z,44.61
2018-05-01T06:37:44.344Z,43.73
2018-05-01T06:40:11.819Z,42.88
2018-05-01T06:42:39.300Z,43.19
2018-05-01T06:45:07.783Z,43.32
2018-05-01T06:47:35.294Z,41.09
2018-05-01T06:50:02.786Z,41.00
2018-05-01T06:52:30.298Z,42.07
2018-05-01T06:54:57.774Z,40.57
2018-05-01T06:57:25.299Z,40.02
2018-05-01T06:59:52.766Z,40.69
2018-05-01T07:02:20.210Z,40.00
2018-05-01T07:04:47.545Z,38.74
2018-05-01T07:07:14.895Z,38.43
2018-05-01T07:09:42.376Z,38.84
2018-05-01T07:12:09.953Z,38.14
2018-05-01T07:14:37.521Z,39.09
2018-05-01T07:17:05.008Z,36.63
2018-05-01T07:19:32.540Z,35.89
2018-05-01T07:22:00.059Z,35.64
2018-05-01T07:24:27.535Z,34.71
2018-05-01T07:26:55.004Z,34.17
2018-05-01T07:29:22.473Z,33.35
2018-05-01T07:31:49.944Z,35.25
2018-05-01T07:34:17.422Z,35.23
2018-05-01T07:36:44.947Z,34.72
2018-05-01T07:39:12.501Z,34.20
2018-05-01T07:41:39.990Z,33.98
2018-05-01T07:44:08.250Z,33.68
2018-05-01T07:46:36.632Z,33.12
2018-05-01T07:49:04.185Z,33.59
2018-05-01T07:51:31.703Z,32.46
2018-05-01T07:53:59.236Z,31.98
2018-05-01T07:56:26.743Z,30.87
2018-05-01T07:58:54.313Z,30.48
2018-05-01T08:01:22.586Z,30.09
2018-05-01T08:03:50.153Z,29.97
2018-05-01T08:06:18.105Z,30.00
2018-05-01T08:08:46.046Z,29.29
2018-05-01T08:11:14.261Z,30.27
2018-05-01T08:13:42.022Z,30.38
2018-05-01T08:16:10.099Z,30.01
2018-05-01T08:18:38.544Z,29.73
2018-05-01T08:21:06.758Z,28.68
2018-05-01T08:23:34.879Z,28.46
2018-05-01T08:26:02.355Z,27.86
2018-05-01T08:28:29.832Z,28.44
2018-05-01T08:30:57.282Z,28.01
2018-05-01T08:33:24.842Z,26.51
2018-05-01T08:35:52.277Z,27.13
2018-05-01T08:38:19.727Z,25.89
2018-05-01T08:40:47.285Z,27.07
2018-05-01T08:43:14.772Z,26.51
2018-05-01T08:45:42.266Z,25.49
2018-05-01T08:48:10.183Z,24.15
2018-05-01T08:50:37.730Z,26.43
2018-05-01T08:53:05.219Z,25.89
2018-05-01T08:55:32.723Z,25.26
2018-05-01T08:58:00.259Z,25.30
2018-05-01T09:00:27.868Z,25.24
2018-05-01T09:02:55.331Z,25.90
2018-05-01T09:05:23.959Z,25.86
2018-05-01T09:07:51.519Z,26.49
2018-05-01T09:10:19.074Z,26.48
2018-05-01T09:12:46.526Z,26.22
2018-05-01T09:15:14.979Z,24.88
2018-05-01T09:17:42.604Z,26.37
2018-05-01T09:20:10.209Z,25.12
2018-05-01T09:22:37.736Z,24.65
2018-05-01T09:25:05.223Z,23.53
2018-05-01T09:27:32.744Z,22.68
2018-05-01T09:30:00.304Z,21.23
2018-05-01T09:32:27.755Z,22.01
2018-05-01T09:34:55.220Z,22.52
2018-05-01T09:37:22.697Z,23.79
2018-05-01T09:39:50.029Z,22.96
2018-05-01T09:42:17.543Z,22.23
2018-05-01T09:44:45.006Z,21.12
2018-05-01T09:47:12.530Z,20.77
2018-05-01T09:49:40.334Z,20.28
2018-05-01T09:52:07.901Z,19.46
2018-05-01T09:54:35.962Z,20.07
2018-05-01T09:57:04.080Z,20.23
2018-05-01T09:59:32.067Z,20.26
2018-05-01T10:02:00.115Z,21.00
2018-05-01T10:04:28.106Z,18.90
2018-05-01T10:06:56.302Z,17.78
2018-05-01T10:09:24.244Z,18.83
2018-05-01T10:11:52.254Z,18.17
2018-05-01T10:14:20.339Z,17.92
2018-05-01T10:16:48.344Z,17.70
2018-05-01T10:19:16.361Z,16.24
2018-05-01T10:21:44.361Z,17.38
2018-05-01T10:24:12.375Z,18.07
2018-05-01T10:26:40.419Z,18.93
2018-05-01T10:29:08.517Z,17.60
2018-05-01T10:31:36.510Z,17.59
2018-05-01T10:34:04.470Z,17.51
2018-05-01T10:36:32.441Z,17.48
2018-05-01T10:39:00.574Z,17.17
2018-05-01T10:41:28.548Z,17.81
2018-05-01T10:43:57.056Z,17.25
2018-05-01T10:46:25.776Z,17.40
2018-05-01T10:48:53.943Z,18.00
2018-05-01T10:51:22.391Z,16.58
2018-05-01T10:53:50.406Z,15.82
2018-05-01T10:56:18.413Z,15.69
2018-05-01T10:58:46.441Z,17.26
2018-05-01T11:01:14.391Z,16.96
2018-05-01T11:03:42.443Z,17.56
2018-05-01T11:06:10.504Z,16.15
2018-05-01T11:08:38.517Z,17.69
2018-05-01T11:11:06.515Z,15.57
2018-05-01T11:13:34.529Z,14.60
2018-05-01T11:16:02.646Z,15.44
2018-05-01T11:18:30.700Z,14.04
2018-05-01T11:20:58.698Z,16.17
2018-05-01T11:23:26.711Z,18.05
2018-05-01T11:25:54.628Z,15.62
2018-05-01T11:28:22.646Z,14.81
2018-05-01T11:30:50.700Z,15.07
2018-05-01T11:33:18.736Z,13.13
2018-05-01T11:35:46.753Z,14.17
2018-05-01T11:38:14.756Z,13.43
2018-05-01T11:40:42.744Z,13.70
2018-05-01T11:43:10.809Z,14.64
2018-05-01T11:45:38.866Z,14.52
2018-05-01T11:48:06.968Z,13.76
2018-05-01T11:50:35.015Z,13.85
2018-05-01T11:53:03.597Z,13.47
2018-05-01T11:55:31.675Z,15.11
2018-05-01T11:57:59.709Z,17.29
2018-05-01T12:00:27.776Z,18.21
2018-05-01T12:02:55.833Z,18.42
2018-05-01T12:05:23.802Z,17.85
2018-05-01T12:07:51.736Z,17.05
2018-05-01T12:10:19.831Z,16.66
2018-05-01T12:12:47.868Z,15.97
2018-05-01T12:15:15.926Z,16.43
2018-05-01T12:17:43.977Z,16.67
2018-05-01T12:20:12.086Z,16.01
2018-05-01T12:22:40.150Z,15.52
2018-05-01T12:25:08.138Z,17.54
2018-05-01T12:27:36.194Z,17.23
2018-05-01T12:30:04.403Z,15.43
2018-05-01T12:32:32.469Z,14.61
2018-05-01T12:35:00.495Z,15.32
2018-05-01T12:37:28.525Z,16.58
2018-05-01T12:39:56.535Z,16.35
2018-05-01T12:42:24.589Z,16.24
2018-05-01T12:44:52.642Z,16.41
2018-05-01T12:47:20.713Z,15.35
2018-05-01T12:49:48.688Z,14.75
2018-05-01T12:52:16.685Z,14.43
2018-05-01T12:54:45.256Z,16.50
2018-05-01T12:57:13.321Z,17.31
2018-05-01T12:59:41.277Z,17.12
2018-05-01T13:02:09.296Z,16.59
2018-05-01T13:04:37.321Z,17.07
2018-05-01T13:07:05.291Z,15.47
2018-05-01T13:09:33.312Z,15.67
2018-05-01T13:12:01.382Z,15.65
2018-05-01T13:14:29.384Z,15.87
2018-05-01T13:16:57.417Z,17.07
2018-05-01T13:19:25.570Z,15.44
2018-05-01T13:21:53.635Z,15.77
2018-05-01T13:24:21.830Z,15.07
2018-05-01T13:26:49.911Z,15.20
2018-05-01T13:29:17.927Z,15.27
2018-05-01T13:31:45.872Z,15.71
2018-05-01T13:34:13.929Z,17.23
2018-05-01T13:36:41.909Z,18.13
2018-05-01T13:39:09.924Z,17.84
2018-05-01T13:41:37.992Z,18.31
2018-05-01T13:44:06.029Z,20.25
2018-05-01T13:46:34.018Z,21.32
2018-05-01T13:49:02.073Z,22.01
2018-05-01T13:51:30.176Z,21.41
2018-05-01T13:53:58.194Z,23.07
2018-05-01T13:56:26.365Z,22.37
2018-05-01T13:58:54.403Z,23.28
2018-05-01T14:01:22.548Z,23.56
2018-05-01T14:03:50.518Z,23.46
2018-05-01T14:06:18.582Z,22.79
2018-05-01T14:08:46.602Z,24.21
2018-05-01T14:11:14.610Z,24.88
2018-05-01T14:13:42.632Z,24.42
2018-05-01T14:16:10.700Z,22.94
2018-05-01T14:18:38.789Z,22.59
2018-05-01T14:21:06.825Z,23.35
2018-05-01T14:23:34.770Z,23.84
2018-05-01T14:26:02.740Z,23.44
2018-05-01T14:28:30.652Z,23.87
2018-05-01T14:30:58.668Z,24.07
2018-05-01T14:33:26.728Z,24.64
2018-05-01T14:35:54.736Z,23.92
2018-05-01T14:38:22.690Z,24.85
2018-05-01T14:40:50.776Z,24.30
2018-05-01T14:43:18.820Z,24.29
2018-05-01T14:45:46.984Z,24.76
2018-05-01T14:48:14.966Z,24.10
2018-05-01T14:50:42.891Z,24.45
2018-05-01T14:53:10.916Z,24.77
2018-05-01T14:55:38.959Z,24.37
2018-05-01T14:58:07.257Z,23.69
2018-05-01T15:00:35.287Z,24.38
2018-05-01T15:03:05.364Z,24.13
2018-05-01T15:05:33.362Z,24.07
2018-05-01T15:08:01.560Z,24.00
2018-05-01T15:10:29.618Z,24.38
2018-05-01T15:12:57.617Z,24.81
2018-05-01T15:15:25.708Z,24.68
2018-05-01T15:17:53.834Z,25.05
2018-05-01T15:20:21.815Z,24.76
2018-05-01T15:22:49.812Z,24.32
2018-05-01T15:25:17.812Z,25.10
2018-05-01T15:27:45.855Z,24.87
2018-05-01T15:30:13.927Z,24.61
2018-05-01T15:32:41.903Z,24.84
2018-05-01T15:35:09.906Z,25.78
2018-05-01T15:37:38.016Z,27.30
2018-05-01T15:40:05.942Z,27.82
2018-05-01T15:42:33.981Z,28.11
2018-05-01T15:45:01.980Z,27.67
2018-05-01T15:47:30.066Z,27.91
2018-05-01T15:49:58.107Z,28.75
2018-05-01T15:52:26.058Z,28.77
2018-05-01T15:54:54.160Z,29.21
2018-05-01T15:57:22.227Z,29.36
2018-05-01T15:59:50.612Z,29.66
2018-05-01T16:02:18.594Z,29.70
2018-05-01T16:04:46.655Z,29.67
2018-05-01T16:07:14.600Z,30.23
2018-05-01T16:09:42.603Z,30.47
2018-05-01T16:12:10.654Z,30.77
2018-05-01T16:14:38.712Z,30.79
2018-05-01T16:17:06.769Z,31.28
2018-05-01T16:19:34.744Z,31.60
2018-05-01T16:22:02.833Z,32.34
2018-05-01T16:24:30.941Z,32.31
2018-05-01T16:26:58.881Z,31.57
2018-05-01T16:29:26.940Z,31.08
2018-05-01T16:31:55.039Z,31.30
2018-05-01T16:34:23.161Z,31.35
2018-05-01T16:36:51.218Z,32.09
2018-05-01T16:39:19.242Z,31.58
2018-05-01T16:41:47.322Z,31.82
2018-05-01T16:44:15.359Z,31.78
2018-05-01T16:46:43.400Z,31.13
2018-05-01T16:49:11.426Z,30.51
2018-05-01T16:51:39.477Z,31.27
2018-05-01T16:54:07.490Z,32.29
2018-05-01T16:56:35.589Z,32.41
2018-05-01T16:59:03.609Z,32.87
2018-05-01T17:01:32.018Z,32.21
2018-05-01T17:04:00.098Z,32.23
2018-05-01T17:06:28.178Z,32.49
2018-05-01T17:08:56.382Z,33.07
2018-05-01T17:11:24.396Z,31.86
2018-05-01T17:13:52.318Z,31.36
2018-05-01T17:16:20.342Z,30.78
2018-05-01T17:18:48.398Z,30.75
2018-05-01T17:21:16.420Z,32.01
2018-05-01T17:23:44.402Z,31.20
2018-05-01T17:26:12.345Z,30.82
2018-05-01T17:28:40.410Z,31.15
2018-05-01T17:31:08.476Z,31.31
2018-05-01T17:33:36.461Z,32.15
2018-05-01T17:36:04.438Z,31.31
2018-05-01T17:38:32.398Z,31.28
2018-05-01T17:41:00.511Z,31.75
2018-05-01T17:43:28.672Z,32.34
2018-05-01T17:45:56.699Z,32.84
2018-05-01T17:48:24.833Z,32.69
2018-05-01T17:50:52.878Z,32.63
2018-05-01T17:53:20.862Z,34.06
2018-05-01T17:55:48.858Z,34.82
2018-05-01T17:58:16.935Z,34.64
2018-05-01T18:00:44.976Z,35.67
2018-05-01T18:03:13.054Z,37.32
2018-05-01T18:05:41.138Z,37.37
2018-05-01T18:08:09.192Z,36.07
2018-05-01T18:10:37.232Z,37.14
2018-05-01T18:13:05.401Z,36.52
2018-05-01T18:15:33.343Z,36.09
2018-05-01T18:18:01.389Z,36.44
2018-05-01T18:20:29.425Z,37.46
2018-05-01T18:22:57.422Z,38.01
2018-05-01T18:25:25.450Z,38.57
2018-05-01T18:27:53.518Z,38.77
2018-05-01T18:30:22.488Z,38.19
2018-05-01T18:32:50.469Z,37.82
2018-05-01T18:35:18.524Z,37.86
2018-05-01T18:37:46.491Z,38.55
2018-05-01T18:40:14.495Z,38.91
2018-05-01T18:42:42.502Z,40.56
2018-05-01T18:45:10.525Z,38.96
2018-05-01T18:47:38.495Z,38.82
2018-05-01T18:50:06.511Z,38.40
2018-05-01T18:52:34.580Z,38.68
2018-05-01T18:55:02.620Z,38.42
2018-05-01T18:57:30.746Z,38.20
2018-05-01T18:59:58.762Z,38.64
2018-05-01T19:02:26.856Z,38.32
2018-05-01T19:04:55.327Z,38.50
2018-05-01T19:07:23.341Z,38.25
2018-05-01T19:09:51.293Z,38.50
2018-05-01T19:12:19.370Z,38.75
2018-05-01T19:14:47.457Z,39.23
2018-05-01T19:17:15.438Z,38.70
2018-05-01T19:19:43.476Z,40.35
2018-05-01T19:22:11.513Z,39.70
2018-05-01T19:24:39.500Z,40.29
2018-05-01T19:27:07.527Z,40.38
2018-05-01T19:29:35.581Z,39.94
2018-05-01T19:32:03.639Z,40.53
2018-05-01T19:34:33.585Z,40.74
2018-05-01T19:37:01.648Z,40.06
2018-05-01T19:39:29.829Z,40.06
2018-05-01T19:41:59.286Z,39.80
2018-05-01T19:44:27.247Z,39.94
2018-05-01T19:46:55.280Z,40.09
2018-05-01T19:49:23.340Z,40.12
2018-05-01T19:51:51.285Z,41.01
2018-05-01T19:54:19.358Z,40.53
2018-05-01T19:56:47.346Z,40.66
2018-05-01T19:59:15.396Z,39.89
2018-05-01T20:01:43.451Z,40.79
2018-05-01T20:04:11.446Z,40.71
2018-05-01T20:06:39.886Z,40.60
2018-05-01T20:09:07.906Z,40.46
2018-05-01T20:11:35.914Z,40.52
2018-05-01T20:14:04.001Z,40.77
2018-05-01T20:16:31.990Z,40.76
2018-05-01T20:19:00.015Z,41.39
2018-05-01T20:21:28.034Z,41.69
2018-05-01T20:23:55.997Z,41.45
2018-05-01T20:26:24.036Z,41.56
2018-05-01T20:28:52.090Z,41.50
2018-05-01T20:31:20.204Z,41.69
2018-05-01T20:33:48.172Z,41.66
2018-05-01T20:36:16.195Z,42.09
2018-05-01T20:38:44.254Z,42.14
2018-05-01T20:41:12.277Z,42.34
2018-05-01T20:43:40.314Z,42.40
2018-05-01T20:46:08.416Z,42.58
2018-05-01T20:48:36.432Z,42.97
2018-05-01T20:51:04.492Z,42.90
2018-05-01T20:53:32.529Z,43.62
2018-05-01T20:56:00.580Z,45.37
2018-05-01T20:58:28.509Z,45.14
2018-05-01T21:00:56.498Z,44.02
2018-05-01T21:03:24.526Z,43.47
2018-05-01T21:05:52.560Z,43.48
2018-05-01T21:08:20.804Z,43.54
2018-05-01T21:10:48.842Z,43.17
2018-05-01T21:13:16.858Z,43.44
2018-05-01T21:15:45.286Z,54.37
2018-05-01T21:18:13.910Z,56.26
2018-05-01T21:20:42.589Z,57.11
2018-05-01T21:23:11.391Z,51.82
2018-05-01T21:25:39.768Z,53.92
2018-05-01T21:28:08.376Z,53.70
2018-05-01T21:30:36.972Z,51.39
2018-05-01T21:33:05.321Z,51.89
2018-05-01T21:35:33.716Z,54.21
2018-05-01T21:38:02.261Z,50.77
2018-05-01T21:40:30.967Z,51.14
2018-05-01T21:42:59.638Z,56.07
2018-05-01T21:45:28.237Z,49.08
2018-05-01T21:47:56.917Z,51.92
2018-05-01T21:50:25.690Z,51.57
2018-05-01T21:52:54.239Z,52.90
2018-05-01T21:55:22.557Z,50.74
2018-05-01T21:57:51.234Z,49.38
2018-05-01T22:00:19.553Z,48.72
2018-05-01T22:02:48.247Z,48.75
2018-05-01T22:05:16.772Z,51.34
2018-05-01T22:07:45.260Z,50.60
2018-05-01T22:10:13.943Z,48.70
2018-05-01T22:12:42.622Z,50.50
2018-05-01T22:15:11.110Z,50.38
2018-05-01T22:17:40.013Z,48.32
2018-05-01T22:20:08.640Z,50.12
2018-05-01T22:22:37.162Z,51.07
2018-05-01T22:25:05.766Z,51.34
2018-05-01T22:27:34.331Z,51.39
2018-05-01T22:30:02.912Z,51.26
2018-05-01T22:32:31.401Z,50.88
2018-05-01T22:34:59.974Z,51.27
2018-05-01T22:37:28.450Z,50.38
2018-05-01T22:39:56.955Z,51.37
2018-05-01T22:42:25.429Z,51.59
2018-05-01T22:44:54.104Z,50.80
2018-05-01T22:47:22.889Z,49.54
2018-05-01T22:49:51.302Z,51.69
2018-05-01T22:52:19.857Z,52.75
2018-05-01T22:54:48.439Z,51.06
2018-05-01T22:57:17.032Z,51.46
2018-05-01T22:59:45.692Z,51.26
2018-05-01T23:02:14.111Z,50.79
2018-05-01T23:04:42.666Z,52.78
2018-05-01T23:07:11.462Z,52.19
2018-05-01T23:09:40.239Z,51.18
2018-05-01T23:12:09.010Z,51.06
2018-05-01T23:14:37.921Z,51.50
2018-05-01T23:17:06.406Z,51.43
2018-05-01T23:19:35.282Z,52.20
2018-05-01T23:22:03.965Z,52.56
2018-05-01T23:24:32.863Z,51.22
2018-05-01T23:27:01.230Z,52.67
2018-05-01T23:29:29.671Z,51.33
2018-05-01T23:31:58.304Z,51.52
2018-05-01T23:34:27.097Z,54.31
2018-05-01T23:36:55.445Z,51.81
2018-05-01T23:39:24.360Z,53.53
2018-05-01T23:41:54.029Z,51.86
2018-05-01T23:44:22.657Z,51.02
2018-05-01T23:46:51.331Z,51.76
2018-05-01T23:49:20.013Z,52.19
2018-05-01T23:51:48.702Z,51.43
2018-05-01T23:54:17.559Z,51.54
2018-05-01T23:56:46.080Z,52.47
2018-05-01T23:59:15.025Z,52.37
